sensor_id;sensor_type;location;lat;lon;timestamp;temperature;humidity
58993;DHT22;44782;0.000;0.000;2023-04-01T00:00:38;17.80;54.80
58993;DHT22;44782;0.000;0.000;2023-04-01T00:02:53;17.80;54.80
58993;DHT22;44782;0.000;0.000;2023-04-01T00:05:09;17.80;54.80
58993;DHT22;44782;0.000;0.000;2023-04-01T00:07:28;17.80;54.90
58993;DHT22;44782;0.000;0.000;2023-04-01T00:09:43;17.80;54.90
58993;DHT22;44782;0.000;0.000;2023-04-01T00:11:59;17.80;54.80
58993;DHT22;44782;0.000;0.000;2023-04-01T00:14:15;17.80;54.80
58993;DHT22;44782;0.000;0.000;2023-04-01T00:16:30;17.70;54.80
58993;DHT22;44782;0.000;0.000;2023-04-01T00:18:46;17.70;54.80
58993;DHT22;44782;0.000;0.000;2023-04-01T00:21:02;17.70;54.80
58993;DHT22;44782;0.000;0.000;2023-04-01T00:23:19;17.70;54.80
58993;DHT22;44782;0.000;0.000;2023-04-01T00:25:36;17.70;54.80
58993;DHT22;44782;0.000;0.000;2023-04-01T00:27:51;17.70;54.80
58993;DHT22;44782;0.000;0.000;2023-04-01T00:30:08;17.70;54.80
58993;DHT22;44782;0.000;0.000;2023-04-01T00:32:23;17.70;54.80
58993;DHT22;44782;0.000;0.000;2023-04-01T00:34:39;17.70;54.80
58993;DHT22;44782;0.000;0.000;2023-04-01T00:36:55;17.70;54.80
58993;DHT22;44782;0.000;0.000;2023-04-01T00:39:11;17.70;54.90
58993;DHT22;44782;0.000;0.000;2023-04-01T00:41:26;17.70;54.80
58993;DHT22;44782;0.000;0.000;2023-04-01T00:43:45;17.70;54.80
58993;DHT22;44782;0.000;0.000;2023-04-01T00:46:01;17.70;54.80
58993;DHT22;44782;0.000;0.000;2023-04-01T00:48:23;17.60;54.80
58993;DHT22;44782;0.000;0.000;2023-04-01T00:50:44;17.60;54.80
58993;DHT22;44782;0.000;0.000;2023-04-01T00:53:02;17.60;54.70
58993;DHT22;44782;0.000;0.000;2023-04-01T00:55:20;17.60;54.90
58993;DHT22;44782;0.000;0.000;2023-04-01T00:57:37;17.60;54.80
58993;DHT22;44782;0.000;0.000;2023-04-01T00:59:55;17.60;54.80
58993;DHT22;44782;0.000;0.000;2023-04-01T01:02:12;17.60;54.80
58993;DHT22;44782;0.000;0.000;2023-04-01T01:04:30;17.60;54.80
58993;DHT22;44782;0.000;0.000;2023-04-01T01:06:56;17.60;54.80
58993;DHT22;44782;0.000;0.000;2023-04-01T01:09:30;17.60;54.70
58993;DHT22;44782;0.000;0.000;2023-04-01T01:12:05;17.60;54.80
58993;DHT22;44782;0.000;0.000;2023-04-01T01:14:43;17.60;54.70
58993;DHT22;44782;0.000;0.000;2023-04-01T01:27:38;17.50;54.70
58993;DHT22;44782;0.000;0.000;2023-04-01T01:30:00;17.50;54.90
58993;DHT22;44782;0.000;0.000;2023-04-01T01:35:37;17.40;54.70
58993;DHT22;44782;0.000;0.000;2023-04-01T01:38:00;17.50;54.80
58993;DHT22;44782;0.000;0.000;2023-04-01T01:40:17;17.40;54.80
58993;DHT22;44782;0.000;0.000;2023-04-01T01:42:35;17.40;54.90
58993;DHT22;44782;0.000;0.000;2023-04-01T01:44:53;17.40;54.80
58993;DHT22;44782;0.000;0.000;2023-04-01T01:47:10;17.40;54.80
58993;DHT22;44782;0.000;0.000;2023-04-01T01:49:28;17.40;54.80
58993;DHT22;44782;0.000;0.000;2023-04-01T01:51:45;17.40;54.80
58993;DHT22;44782;0.000;0.000;2023-04-01T01:54:01;17.40;54.80
58993;DHT22;44782;0.000;0.000;2023-04-01T01:56:18;17.40;54.80
58993;DHT22;44782;0.000;0.000;2023-04-01T02:01:03;17.40;54.80
58993;DHT22;44782;0.000;0.000;2023-04-01T02:03:22;17.40;54.70
58993;DHT22;44782;0.000;0.000;2023-04-01T02:05:38;17.40;54.80
58993;DHT22;44782;0.000;0.000;2023-04-01T02:10:22;17.40;54.80
58993;DHT22;44782;0.000;0.000;2023-04-01T02:12:42;17.40;54.80
58993;DHT22;44782;0.000;0.000;2023-04-01T02:15:07;17.40;54.80
58993;DHT22;44782;0.000;0.000;2023-04-01T02:17:28;17.40;54.70
58993;DHT22;44782;0.000;0.000;2023-04-01T02:20:08;17.40;54.80
58993;DHT22;44782;0.000;0.000;2023-04-01T02:22:26;17.40;55.30
58993;DHT22;44782;0.000;0.000;2023-04-01T02:24:43;17.40;54.80
58993;DHT22;44782;0.000;0.000;2023-04-01T02:27:01;17.30;54.80
58993;DHT22;44782;0.000;0.000;2023-04-01T02:29:21;17.40;54.80
58993;DHT22;44782;0.000;0.000;2023-04-01T02:31:39;17.40;54.70
58993;DHT22;44782;0.000;0.000;2023-04-01T02:33:55;17.40;54.90
58993;DHT22;44782;0.000;0.000;2023-04-01T02:36:13;17.30;54.80
58993;DHT22;44782;0.000;0.000;2023-04-01T02:38:29;17.30;54.80
58993;DHT22;44782;0.000;0.000;2023-04-01T02:40:49;17.30;54.80
58993;DHT22;44782;0.000;0.000;2023-04-01T02:43:05;17.30;54.70
58993;DHT22;44782;0.000;0.000;2023-04-01T02:45:21;17.30;54.80
58993;DHT22;44782;0.000;0.000;2023-04-01T02:47:37;17.30;54.80
58993;DHT22;44782;0.000;0.000;2023-04-01T02:49:52;17.30;54.80
58993;DHT22;44782;0.000;0.000;2023-04-01T02:52:13;17.30;55.50
58993;DHT22;44782;0.000;0.000;2023-04-01T02:54:29;17.30;54.80
58993;DHT22;44782;0.000;0.000;2023-04-01T02:56:45;17.30;54.80
58993;DHT22;44782;0.000;0.000;2023-04-01T02:59:01;17.30;54.80
58993;DHT22;44782;0.000;0.000;2023-04-01T03:01:17;17.30;54.80
58993;DHT22;44782;0.000;0.000;2023-04-01T03:03:32;17.30;54.80
58993;DHT22;44782;0.000;0.000;2023-04-01T03:05:48;17.30;54.80
58993;DHT22;44782;0.000;0.000;2023-04-01T03:08:04;17.30;54.80
58993;DHT22;44782;0.000;0.000;2023-04-01T03:10:20;17.30;54.80
58993;DHT22;44782;0.000;0.000;2023-04-01T03:12:36;17.30;54.80
58993;DHT22;44782;0.000;0.000;2023-04-01T03:14:52;17.30;54.80
58993;DHT22;44782;0.000;0.000;2023-04-01T03:17:08;17.20;54.70
58993;DHT22;44782;0.000;0.000;2023-04-01T03:19:23;17.20;54.80
58993;DHT22;44782;0.000;0.000;2023-04-01T03:21:39;17.20;54.80
58993;DHT22;44782;0.000;0.000;2023-04-01T03:23:55;17.20;55.40
58993;DHT22;44782;0.000;0.000;2023-04-01T03:26:10;17.20;54.70
58993;DHT22;44782;0.000;0.000;2023-04-01T03:28:26;17.20;54.80
58993;DHT22;44782;0.000;0.000;2023-04-01T03:30:42;17.20;54.80
58993;DHT22;44782;0.000;0.000;2023-04-01T03:32:58;17.20;54.80
58993;DHT22;44782;0.000;0.000;2023-04-01T03:35:15;17.20;54.70
58993;DHT22;44782;0.000;0.000;2023-04-01T03:37:30;17.20;54.80
58993;DHT22;44782;0.000;0.000;2023-04-01T03:39:46;17.20;54.80
58993;DHT22;44782;0.000;0.000;2023-04-01T03:42:02;17.20;54.80
58993;DHT22;44782;0.000;0.000;2023-04-01T03:44:17;17.20;54.80
58993;DHT22;44782;0.000;0.000;2023-04-01T03:46:33;17.20;54.80
58993;DHT22;44782;0.000;0.000;2023-04-01T03:48:48;17.20;54.80
58993;DHT22;44782;0.000;0.000;2023-04-01T03:51:07;17.20;54.80
58993;DHT22;44782;0.000;0.000;2023-04-01T03:53:23;17.20;54.80
58993;DHT22;44782;0.000;0.000;2023-04-01T03:55:39;17.20;54.80
58993;DHT22;44782;0.000;0.000;2023-04-01T03:57:55;17.20;54.80
58993;DHT22;44782;0.000;0.000;2023-04-01T04:00:11;17.20;54.80
58993;DHT22;44782;0.000;0.000;2023-04-01T04:02:27;17.20;54.80
58993;DHT22;44782;0.000;0.000;2023-04-01T04:04:42;17.20;54.80
58993;DHT22;44782;0.000;0.000;2023-04-01T04:06:58;17.20;54.80
58993;DHT22;44782;0.000;0.000;2023-04-01T04:09:13;17.20;54.80
58993;DHT22;44782;0.000;0.000;2023-04-01T04:11:31;17.20;54.80
58993;DHT22;44782;0.000;0.000;2023-04-01T04:13:47;17.20;54.80
58993;DHT22;44782;0.000;0.000;2023-04-01T04:16:03;17.20;54.80
58993;DHT22;44782;0.000;0.000;2023-04-01T04:18:19;17.20;54.80
58993;DHT22;44782;0.000;0.000;2023-04-01T04:20:35;17.20;54.80
58993;DHT22;44782;0.000;0.000;2023-04-01T04:22:51;17.20;54.80
58993;DHT22;44782;0.000;0.000;2023-04-01T04:25:07;17.20;54.80
58993;DHT22;44782;0.000;0.000;2023-04-01T04:27:22;17.20;54.80
58993;DHT22;44782;0.000;0.000;2023-04-01T04:29:38;17.20;54.80
58993;DHT22;44782;0.000;0.000;2023-04-01T04:31:54;17.30;54.80
58993;DHT22;44782;0.000;0.000;2023-04-01T04:34:09;17.30;54.80
58993;DHT22;44782;0.000;0.000;2023-04-01T04:36:25;17.30;54.70
58993;DHT22;44782;0.000;0.000;2023-04-01T04:38:41;17.30;54.70
58993;DHT22;44782;0.000;0.000;2023-04-01T04:40:56;17.30;54.70
58993;DHT22;44782;0.000;0.000;2023-04-01T04:43:14;17.30;54.70
58993;DHT22;44782;0.000;0.000;2023-04-01T04:45:30;17.40;54.80
58993;DHT22;44782;0.000;0.000;2023-04-01T04:47:46;17.40;54.70
58993;DHT22;44782;0.000;0.000;2023-04-01T04:50:01;17.40;54.70
58993;DHT22;44782;0.000;0.000;2023-04-01T04:52:17;17.40;54.70
58993;DHT22;44782;0.000;0.000;2023-04-01T04:54:32;17.40;54.70
58993;DHT22;44782;0.000;0.000;2023-04-01T04:56:51;17.40;54.70
58993;DHT22;44782;0.000;0.000;2023-04-01T04:59:07;17.40;54.60
58993;DHT22;44782;0.000;0.000;2023-04-01T05:01:23;17.40;54.70
58993;DHT22;44782;0.000;0.000;2023-04-01T05:03:39;17.40;54.60
58993;DHT22;44782;0.000;0.000;2023-04-01T05:05:55;17.50;54.70
58993;DHT22;44782;0.000;0.000;2023-04-01T05:08:11;17.50;54.70
58993;DHT22;44782;0.000;0.000;2023-04-01T05:10:26;17.50;54.70
58993;DHT22;44782;0.000;0.000;2023-04-01T05:12:42;17.50;54.60
58993;DHT22;44782;0.000;0.000;2023-04-01T05:14:58;17.50;54.60
58993;DHT22;44782;0.000;0.000;2023-04-01T05:17:13;17.50;54.60
58993;DHT22;44782;0.000;0.000;2023-04-01T05:19:29;17.50;54.60
58993;DHT22;44782;0.000;0.000;2023-04-01T05:21:45;17.50;54.60
58993;DHT22;44782;0.000;0.000;2023-04-01T05:24:00;17.50;54.60
58993;DHT22;44782;0.000;0.000;2023-04-01T05:26:16;17.50;54.50
58993;DHT22;44782;0.000;0.000;2023-04-01T05:28:32;17.50;54.50
58993;DHT22;44782;0.000;0.000;2023-04-01T05:30:47;17.50;54.50
58993;DHT22;44782;0.000;0.000;2023-04-01T05:33:03;17.50;54.50
58993;DHT22;44782;0.000;0.000;2023-04-01T05:35:19;17.60;54.60
58993;DHT22;44782;0.000;0.000;2023-04-01T05:37:35;17.60;54.50
58993;DHT22;44782;0.000;0.000;2023-04-01T05:39:51;17.60;54.60
58993;DHT22;44782;0.000;0.000;2023-04-01T05:42:07;17.60;54.60
58993;DHT22;44782;0.000;0.000;2023-04-01T05:44:23;17.60;54.60
58993;DHT22;44782;0.000;0.000;2023-04-01T05:46:38;17.60;54.60
58993;DHT22;44782;0.000;0.000;2023-04-01T05:48:54;17.60;54.60
58993;DHT22;44782;0.000;0.000;2023-04-01T05:51:15;17.60;54.60
58993;DHT22;44782;0.000;0.000;2023-04-01T05:53:32;17.60;54.50
58993;DHT22;44782;0.000;0.000;2023-04-01T05:55:47;17.50;54.50
58993;DHT22;44782;0.000;0.000;2023-04-01T05:58:03;17.50;54.60
58993;DHT22;44782;0.000;0.000;2023-04-01T06:00:19;17.50;55.20
58993;DHT22;44782;0.000;0.000;2023-04-01T06:02:35;17.50;55.20
58993;DHT22;44782;0.000;0.000;2023-04-01T06:05:17;17.50;54.50
58993;DHT22;44782;0.000;0.000;2023-04-01T06:07:33;17.60;54.40
58993;DHT22;44782;0.000;0.000;2023-04-01T06:09:49;17.50;54.50
58993;DHT22;44782;0.000;0.000;2023-04-01T06:17:30;17.50;54.30
58993;DHT22;44782;0.000;0.000;2023-04-01T06:29:50;17.50;54.50
58993;DHT22;44782;0.000;0.000;2023-04-01T06:42:18;17.50;54.50
58993;DHT22;44782;0.000;0.000;2023-04-01T06:50:07;17.40;54.50
58993;DHT22;44782;0.000;0.000;2023-04-01T06:57:45;17.40;54.40
58993;DHT22;44782;0.000;0.000;2023-04-01T07:00:13;17.40;54.60
58993;DHT22;44782;0.000;0.000;2023-04-01T07:02:41;17.40;54.40
58993;DHT22;44782;0.000;0.000;2023-04-01T07:04:58;17.40;54.50
58993;DHT22;44782;0.000;0.000;2023-04-01T07:09:39;17.40;55.10
58993;DHT22;44782;0.000;0.000;2023-04-01T07:12:00;17.40;54.50
58993;DHT22;44782;0.000;0.000;2023-04-01T07:14:41;17.40;54.50
58993;DHT22;44782;0.000;0.000;2023-04-01T07:17:02;17.40;54.50
58993;DHT22;44782;0.000;0.000;2023-04-01T07:21:53;17.40;54.50
58993;DHT22;44782;0.000;0.000;2023-04-01T07:24:40;17.40;54.50
58993;DHT22;44782;0.000;0.000;2023-04-01T07:26:56;17.40;54.40
58993;DHT22;44782;0.000;0.000;2023-04-01T07:29:13;17.40;54.60
58993;DHT22;44782;0.000;0.000;2023-04-01T07:34:26;17.40;54.40
58993;DHT22;44782;0.000;0.000;2023-04-01T07:36:47;17.30;54.50
58993;DHT22;44782;0.000;0.000;2023-04-01T07:41:55;17.30;54.50
58993;DHT22;44782;0.000;0.000;2023-04-01T08:04:44;17.30;54.50
58993;DHT22;44782;0.000;0.000;2023-04-01T08:07:10;17.30;54.60
58993;DHT22;44782;0.000;0.000;2023-04-01T08:12:27;17.30;54.50
58993;DHT22;44782;0.000;0.000;2023-04-01T08:22:25;17.30;54.50
58993;DHT22;44782;0.000;0.000;2023-04-01T08:24:43;17.20;54.50
58993;DHT22;44782;0.000;0.000;2023-04-01T08:27:03;17.20;54.60
58993;DHT22;44782;0.000;0.000;2023-04-01T08:29:25;17.20;54.60
58993;DHT22;44782;0.000;0.000;2023-04-01T08:32:03;17.20;54.60
58993;DHT22;44782;0.000;0.000;2023-04-01T08:34:25;17.20;54.40
58993;DHT22;44782;0.000;0.000;2023-04-01T08:36:59;17.20;54.60
58993;DHT22;44782;0.000;0.000;2023-04-01T08:39:38;17.20;54.60
58993;DHT22;44782;0.000;0.000;2023-04-01T08:57:37;17.20;54.50
58993;DHT22;44782;0.000;0.000;2023-04-01T09:00:22;17.20;54.50
58993;DHT22;44782;0.000;0.000;2023-04-01T09:05:25;17.20;54.70
58993;DHT22;44782;0.000;0.000;2023-04-01T09:13:10;17.20;54.40
58993;DHT22;44782;0.000;0.000;2023-04-01T09:15:42;17.30;54.50
58993;DHT22;44782;0.000;0.000;2023-04-01T09:18:24;17.30;54.50
58993;DHT22;44782;0.000;0.000;2023-04-01T09:28:47;17.30;54.30
58993;DHT22;44782;0.000;0.000;2023-04-01T09:31:13;17.30;54.50
58993;DHT22;44782;0.000;0.000;2023-04-01T09:37:02;17.40;54.30
58993;DHT22;44782;0.000;0.000;2023-04-01T09:39:38;17.40;54.30
58993;DHT22;44782;0.000;0.000;2023-04-01T09:49:33;17.40;54.40
58993;DHT22;44782;0.000;0.000;2023-04-01T09:57:46;17.40;54.00
58993;DHT22;44782;0.000;0.000;2023-04-01T10:24:01;17.60;53.70
58993;DHT22;44782;0.000;0.000;2023-04-01T10:29:52;17.60;53.50
58993;DHT22;44782;0.000;0.000;2023-04-01T10:34:54;17.60;53.70
58993;DHT22;44782;0.000;0.000;2023-04-01T10:37:50;17.60;53.60
58993;DHT22;44782;0.000;0.000;2023-04-01T11:09:04;17.70;53.00
58993;DHT22;44782;0.000;0.000;2023-04-01T11:32:49;17.60;53.00
58993;DHT22;44782;0.000;0.000;2023-04-01T12:11:00;17.70;53.10
58993;DHT22;44782;0.000;0.000;2023-04-01T12:26:11;17.70;52.90
58993;DHT22;44782;0.000;0.000;2023-04-01T12:36:22;17.70;53.50
58993;DHT22;44782;0.000;0.000;2023-04-01T12:38:43;17.70;53.30
58993;DHT22;44782;0.000;0.000;2023-04-01T12:41:38;17.70;53.40
58993;DHT22;44782;0.000;0.000;2023-04-01T12:44:07;17.70;53.30
58993;DHT22;44782;0.000;0.000;2023-04-01T12:49:31;17.70;53.30
58993;DHT22;44782;0.000;0.000;2023-04-01T12:51:56;17.70;53.30
58993;DHT22;44782;0.000;0.000;2023-04-01T13:03:02;17.70;54.60
58993;DHT22;44782;0.000;0.000;2023-04-01T13:05:59;17.70;54.20
58993;DHT22;44782;0.000;0.000;2023-04-01T13:11:09;17.80;54.40
58993;DHT22;44782;0.000;0.000;2023-04-01T13:16:01;17.70;54.10
58993;DHT22;44782;0.000;0.000;2023-04-01T13:26:07;17.70;54.10
58993;DHT22;44782;0.000;0.000;2023-04-01T13:28:30;17.80;54.60
58993;DHT22;44782;0.000;0.000;2023-04-01T13:33:27;17.80;54.30
58993;DHT22;44782;0.000;0.000;2023-04-01T13:43:23;17.80;54.10
58993;DHT22;44782;0.000;0.000;2023-04-01T13:46:01;17.80;54.30
58993;DHT22;44782;0.000;0.000;2023-04-01T13:48:37;17.80;55.40
58993;DHT22;44782;0.000;0.000;2023-04-01T13:58:58;17.80;54.50
58993;DHT22;44782;0.000;0.000;2023-04-01T14:06:44;17.90;54.40
58993;DHT22;44782;0.000;0.000;2023-04-01T14:09:16;17.90;54.40
58993;DHT22;44782;0.000;0.000;2023-04-01T14:11:53;17.80;54.40
58993;DHT22;44782;0.000;0.000;2023-04-01T14:14:54;17.90;55.00
58993;DHT22;44782;0.000;0.000;2023-04-01T14:20:25;17.90;54.60
58993;DHT22;44782;0.000;0.000;2023-04-01T14:41:46;18.00;55.60
58993;DHT22;44782;0.000;0.000;2023-04-01T14:51:52;18.20;55.50
58993;DHT22;44782;0.000;0.000;2023-04-01T14:56:49;18.20;55.30
58993;DHT22;44782;0.000;0.000;2023-04-01T15:01:50;18.30;55.30
58993;DHT22;44782;0.000;0.000;2023-04-01T15:07:27;18.40;55.30
58993;DHT22;44782;0.000;0.000;2023-04-01T15:09:56;18.40;55.30
58993;DHT22;44782;0.000;0.000;2023-04-01T15:12:23;18.40;55.20
58993;DHT22;44782;0.000;0.000;2023-04-01T15:14:57;18.40;55.30
58993;DHT22;44782;0.000;0.000;2023-04-01T15:22:53;18.50;55.40
58993;DHT22;44782;0.000;0.000;2023-04-01T15:30:32;18.50;55.40
58993;DHT22;44782;0.000;0.000;2023-04-01T15:40:42;18.60;55.40
58993;DHT22;44782;0.000;0.000;2023-04-01T15:43:15;18.50;55.40
58993;DHT22;44782;0.000;0.000;2023-04-01T15:48:29;18.60;55.50
58993;DHT22;44782;0.000;0.000;2023-04-01T15:50:57;18.60;55.40
58993;DHT22;44782;0.000;0.000;2023-04-01T15:58:56;18.60;55.40
58993;DHT22;44782;0.000;0.000;2023-04-01T16:12:19;18.60;55.30
58993;DHT22;44782;0.000;0.000;2023-04-01T16:15:30;18.60;55.30
58993;DHT22;44782;0.000;0.000;2023-04-01T16:17:25;18.50;55.30
58993;DHT22;44782;0.000;0.000;2023-04-01T16:20:02;18.50;55.30
58993;DHT22;44782;0.000;0.000;2023-04-01T16:22:43;18.50;55.20
58993;DHT22;44782;0.000;0.000;2023-04-01T16:27:54;18.50;55.30
58993;DHT22;44782;0.000;0.000;2023-04-01T16:33:51;18.50;55.40
58993;DHT22;44782;0.000;0.000;2023-04-01T16:41:32;18.50;55.40
58993;DHT22;44782;0.000;0.000;2023-04-01T16:44:10;18.50;55.40
58993;DHT22;44782;0.000;0.000;2023-04-01T16:46:49;18.50;55.10
58993;DHT22;44782;0.000;0.000;2023-04-01T16:57:25;18.50;55.40
58993;DHT22;44782;0.000;0.000;2023-04-01T16:59:55;18.40;56.10
58993;DHT22;44782;0.000;0.000;2023-04-01T17:02:18;18.50;55.00
58993;DHT22;44782;0.000;0.000;2023-04-01T17:04:49;18.40;55.20
58993;DHT22;44782;0.000;0.000;2023-04-01T17:12:28;18.40;55.20
58993;DHT22;44782;0.000;0.000;2023-04-01T17:17:23;18.40;55.10
58993;DHT22;44782;0.000;0.000;2023-04-01T17:39:59;18.30;55.00
58993;DHT22;44782;0.000;0.000;2023-04-01T17:45:10;18.30;54.80
58993;DHT22;44782;0.000;0.000;2023-04-01T17:47:38;18.30;54.90
58993;DHT22;44782;0.000;0.000;2023-04-01T17:52:30;18.30;55.00
58993;DHT22;44782;0.000;0.000;2023-04-01T17:57:46;18.30;55.40
58993;DHT22;44782;0.000;0.000;2023-04-01T18:23:47;18.20;54.50
58993;DHT22;44782;0.000;0.000;2023-04-01T18:26:18;18.10;54.40
58993;DHT22;44782;0.000;0.000;2023-04-01T18:28:52;18.10;54.20
58993;DHT22;44782;0.000;0.000;2023-04-01T18:31:16;18.10;54.70
58993;DHT22;44782;0.000;0.000;2023-04-01T18:39:00;18.10;54.70
58993;DHT22;44782;0.000;0.000;2023-04-01T18:46:41;18.10;54.80
58993;DHT22;44782;0.000;0.000;2023-04-01T18:52:16;18.10;54.30
58993;DHT22;44782;0.000;0.000;2023-04-01T18:57:18;18.00;54.70
58993;DHT22;44782;0.000;0.000;2023-04-01T18:59:50;18.00;54.80
58993;DHT22;44782;0.000;0.000;2023-04-01T19:02:19;18.00;54.70
58993;DHT22;44782;0.000;0.000;2023-04-01T19:04:39;18.10;55.00
58993;DHT22;44782;0.000;0.000;2023-04-01T19:06:58;18.00;55.40
58993;DHT22;44782;0.000;0.000;2023-04-01T19:09:33;18.10;54.50
58993;DHT22;44782;0.000;0.000;2023-04-01T19:17:07;18.00;54.80
58993;DHT22;44782;0.000;0.000;2023-04-01T19:19:55;18.10;54.80
58993;DHT22;44782;0.000;0.000;2023-04-01T19:28:02;18.00;54.90
58993;DHT22;44782;0.000;0.000;2023-04-01T19:35:48;18.00;55.00
58993;DHT22;44782;0.000;0.000;2023-04-01T19:46:34;18.10;56.30
58993;DHT22;44782;0.000;0.000;2023-04-01T19:51:28;18.10;56.40
58993;DHT22;44782;0.000;0.000;2023-04-01T19:53:56;18.10;56.20
58993;DHT22;44782;0.000;0.000;2023-04-01T19:56:19;18.10;55.60
58993;DHT22;44782;0.000;0.000;2023-04-01T19:58:41;18.10;55.60
58993;DHT22;44782;0.000;0.000;2023-04-01T20:00:59;18.10;56.00
58993;DHT22;44782;0.000;0.000;2023-04-01T20:14:26;18.10;56.50
58993;DHT22;44782;0.000;0.000;2023-04-01T20:16:54;18.00;56.20
58993;DHT22;44782;0.000;0.000;2023-04-01T20:19:11;18.00;56.20
58993;DHT22;44782;0.000;0.000;2023-04-01T20:21:36;18.00;56.10
58993;DHT22;44782;0.000;0.000;2023-04-01T20:26:25;18.00;56.10
58993;DHT22;44782;0.000;0.000;2023-04-01T20:31:39;18.10;56.30
58993;DHT22;44782;0.000;0.000;2023-04-01T20:39:11;18.00;56.20
58993;DHT22;44782;0.000;0.000;2023-04-01T20:44:14;18.00;56.10
58993;DHT22;44782;0.000;0.000;2023-04-01T20:51:46;18.00;56.10
58993;DHT22;44782;0.000;0.000;2023-04-01T20:59:23;18.00;56.00
58993;DHT22;44782;0.000;0.000;2023-04-01T21:24:55;17.90;55.80
58993;DHT22;44782;0.000;0.000;2023-04-01T21:29:51;17.90;55.50
58993;DHT22;44782;0.000;0.000;2023-04-01T21:35:02;17.90;55.50
58993;DHT22;44782;0.000;0.000;2023-04-01T21:37:36;17.90;55.50
58993;DHT22;44782;0.000;0.000;2023-04-01T21:42:50;17.90;55.70
58993;DHT22;44782;0.000;0.000;2023-04-01T22:00:48;17.80;55.40
58993;DHT22;44782;0.000;0.000;2023-04-01T22:06:02;17.80;55.20
58993;DHT22;44782;0.000;0.000;2023-04-01T22:08:38;17.70;55.30
58993;DHT22;44782;0.000;0.000;2023-04-01T22:11:04;17.80;55.50
58993;DHT22;44782;0.000;0.000;2023-04-01T22:21:41;17.70;55.70
58993;DHT22;44782;0.000;0.000;2023-04-01T22:26:47;17.60;55.70
58993;DHT22;44782;0.000;0.000;2023-04-01T22:34:46;17.60;55.60
58993;DHT22;44782;0.000;0.000;2023-04-01T22:42:20;17.50;55.60
58993;DHT22;44782;0.000;0.000;2023-04-01T22:50:26;17.50;55.60
58993;DHT22;44782;0.000;0.000;2023-04-01T22:52:53;17.50;55.40
58993;DHT22;44782;0.000;0.000;2023-04-01T22:55:31;17.40;55.60
58993;DHT22;44782;0.000;0.000;2023-04-01T22:58:09;17.40;55.30
58993;DHT22;44782;0.000;0.000;2023-04-01T23:00:51;17.40;55.30
58993;DHT22;44782;0.000;0.000;2023-04-01T23:05:30;17.40;55.50
58993;DHT22;44782;0.000;0.000;2023-04-01T23:10:49;17.40;55.30
58993;DHT22;44782;0.000;0.000;2023-04-01T23:13:16;17.40;55.50
58993;DHT22;44782;0.000;0.000;2023-04-01T23:15:34;17.40;55.50
58993;DHT22;44782;0.000;0.000;2023-04-01T23:18:09;17.40;55.50
58993;DHT22;44782;0.000;0.000;2023-04-01T23:23:11;17.30;55.50
58993;DHT22;44782;0.000;0.000;2023-04-01T23:28:41;17.30;55.30
58993;DHT22;44782;0.000;0.000;2023-04-01T23:30:58;17.30;55.50
58993;DHT22;44782;0.000;0.000;2023-04-01T23:35:32;17.30;55.40
58993;DHT22;44782;0.000;0.000;2023-04-01T23:37:48;17.30;55.40
58993;DHT22;44782;0.000;0.000;2023-04-01T23:40:04;17.30;55.40
58993;DHT22;44782;0.000;0.000;2023-04-01T23:42:32;17.30;55.40
58993;DHT22;44782;0.000;0.000;2023-04-01T23:45:04;17.30;55.40
58993;DHT22;44782;0.000;0.000;2023-04-01T23:47:36;17.30;55.30
58993;DHT22;44782;0.000;0.000;2023-04-01T23:49:56;17.20;55.30
58993;DHT22;44782;0.000;0.000;2023-04-01T23:52:25;17.20;55.30
58993;DHT22;44782;0.000;0.000;2023-04-01T23:54:54;17.20;55.20
58993;DHT22;44782;0.000;0.000;2023-04-01T23:57:17;17.20;55.30
58993;DHT22;44782;0.000;0.000;2023-04-01T23:59:35;17.20;55.20
